sensor_id;sensor_type;location;lat;lon;timestamp;P1;durP1;ratioP1;P2;durP2;ratioP2
68178;SDS011;69812;42.632;23.440;2024-02-04T00:00:43;31.73;;;11.02;;
68178;SDS011;69812;42.632;23.440;2024-02-04T00:03:08;26.77;;;10.98;;
68178;SDS011;69812;42.632;23.440;2024-02-04T00:05:37;28.55;;;10.63;;
68178;SDS011;69812;42.632;23.440;2024-02-04T00:08:02;27.80;;;10.70;;
68178;SDS011;69812;42.632;23.440;2024-02-04T00:10:28;20.45;;;10.52;;
68178;SDS011;69812;42.632;23.440;2024-02-04T00:12:54;22.98;;;9.52;;
68178;SDS011;69812;42.632;23.440;2024-02-04T00:15:19;23.23;;;10.85;;
68178;SDS011;69812;42.632;23.440;2024-02-04T00:17:45;27.80;;;11.43;;
68178;SDS011;69812;42.632;23.440;2024-02-04T00:20:10;26.60;;;10.85;;
68178;SDS011;69812;42.632;23.440;2024-02-04T00:22:36;23.13;;;10.13;;
68178;SDS011;69812;42.632;23.440;2024-02-04T00:25:02;24.30;;;10.27;;
68178;SDS011;69812;42.632;23.440;2024-02-04T00:27:33;22.35;;;9.57;;
68178;SDS011;69812;42.632;23.440;2024-02-04T00:29:59;23.08;;;9.35;;
68178;SDS011;69812;42.632;23.440;2024-02-04T00:32:25;22.20;;;9.27;;
68178;SDS011;69812;42.632;23.440;2024-02-04T00:34:51;20.27;;;8.00;;
68178;SDS011;69812;42.632;23.440;2024-02-04T00:37:18;16.17;;;7.45;;
68178;SDS011;69812;42.632;23.440;2024-02-04T00:39:43;14.30;;;7.05;;
68178;SDS011;69812;42.632;23.440;2024-02-04T00:42:09;16.40;;;7.53;;
68178;SDS011;69812;42.632;23.440;2024-02-04T00:44:35;17.00;;;7.70;;
68178;SDS011;69812;42.632;23.440;2024-02-04T00:47:00;13.45;;;6.40;;
68178;SDS011;69812;42.632;23.440;2024-02-04T00:49:26;11.32;;;5.60;;
68178;SDS011;69812;42.632;23.440;2024-02-04T00:51:52;15.35;;;7.28;;
68178;SDS011;69812;42.632;23.440;2024-02-04T00:54:20;14.52;;;7.35;;
68178;SDS011;69812;42.632;23.440;2024-02-04T00:56:47;16.90;;;7.65;;
68178;SDS011;69812;42.632;23.440;2024-02-04T00:59:13;10.77;;;4.15;;
68178;SDS011;69812;42.632;23.440;2024-02-04T01:01:39;10.43;;;4.75;;
68178;SDS011;69812;42.632;23.440;2024-02-04T01:04:09;12.82;;;4.70;;
68178;SDS011;69812;42.632;23.440;2024-02-04T01:06:34;8.00;;;3.75;;
68178;SDS011;69812;42.632;23.440;2024-02-04T01:09:00;7.43;;;3.58;;
68178;SDS011;69812;42.632;23.440;2024-02-04T01:11:25;8.52;;;4.40;;
68178;SDS011;69812;42.632;23.440;2024-02-04T01:13:51;16.42;;;6.82;;
68178;SDS011;69812;42.632;23.440;2024-02-04T01:16:16;15.07;;;6.60;;
68178;SDS011;69812;42.632;23.440;2024-02-04T01:18:42;17.48;;;6.70;;
68178;SDS011;69812;42.632;23.440;2024-02-04T01:21:07;11.63;;;6.25;;
68178;SDS011;69812;42.632;23.440;2024-02-04T01:23:34;14.63;;;6.55;;
68178;SDS011;69812;42.632;23.440;2024-02-04T01:25:59;17.83;;;7.00;;
68178;SDS011;69812;42.632;23.440;2024-02-04T01:28:25;12.93;;;6.55;;
68178;SDS011;69812;42.632;23.440;2024-02-04T01:30:50;17.38;;;6.78;;
68178;SDS011;69812;42.632;23.440;2024-02-04T01:33:16;14.77;;;6.45;;
68178;SDS011;69812;42.632;23.440;2024-02-04T01:35:41;13.80;;;7.50;;
68178;SDS011;69812;42.632;23.440;2024-02-04T01:38:07;16.85;;;6.90;;
68178;SDS011;69812;42.632;23.440;2024-02-04T01:40:32;15.48;;;7.45;;
68178;SDS011;69812;42.632;23.440;2024-02-04T01:43:00;11.00;;;6.07;;
68178;SDS011;69812;42.632;23.440;2024-02-04T01:45:26;13.00;;;6.45;;
68178;SDS011;69812;42.632;23.440;2024-02-04T01:47:51;14.80;;;6.35;;
68178;SDS011;69812;42.632;23.440;2024-02-04T01:50:18;15.05;;;8.57;;
68178;SDS011;69812;42.632;23.440;2024-02-04T01:52:43;14.55;;;6.40;;
68178;SDS011;69812;42.632;23.440;2024-02-04T01:55:10;9.40;;;4.93;;
68178;SDS011;69812;42.632;23.440;2024-02-04T01:57:36;12.55;;;6.53;;
68178;SDS011;69812;42.632;23.440;2024-02-04T02:00:02;15.05;;;7.13;;
68178;SDS011;69812;42.632;23.440;2024-02-04T02:02:33;12.25;;;5.80;;
68178;SDS011;69812;42.632;23.440;2024-02-04T02:04:59;15.32;;;7.07;;
68178;SDS011;69812;42.632;23.440;2024-02-04T02:07:25;12.68;;;5.95;;
68178;SDS011;69812;42.632;23.440;2024-02-04T02:09:52;11.63;;;5.63;;
68178;SDS011;69812;42.632;23.440;2024-02-04T02:12:19;14.10;;;5.72;;
68178;SDS011;69812;42.632;23.440;2024-02-04T02:14:54;10.93;;;5.43;;
68178;SDS011;69812;42.632;23.440;2024-02-04T02:17:26;4.55;;;2.10;;
68178;SDS011;69812;42.632;23.440;2024-02-04T02:20:15;7.50;;;3.53;;
68178;SDS011;69812;42.632;23.440;2024-02-04T02:22:49;5.65;;;2.35;;
68178;SDS011;69812;42.632;23.440;2024-02-04T02:25:25;6.82;;;2.55;;
68178;SDS011;69812;42.632;23.440;2024-02-04T02:27:52;4.28;;;2.28;;
68178;SDS011;69812;42.632;23.440;2024-02-04T02:30:18;3.65;;;2.17;;
68178;SDS011;69812;42.632;23.440;2024-02-04T02:32:44;4.32;;;2.13;;
68178;SDS011;69812;42.632;23.440;2024-02-04T02:35:16;4.85;;;2.30;;
68178;SDS011;69812;42.632;23.440;2024-02-04T02:40:24;5.43;;;2.90;;
68178;SDS011;69812;42.632;23.440;2024-02-04T02:42:55;3.70;;;2.00;;
68178;SDS011;69812;42.632;23.440;2024-02-04T02:45:22;4.82;;;2.13;;
68178;SDS011;69812;42.632;23.440;2024-02-04T02:47:50;3.95;;;2.10;;
68178;SDS011;69812;42.632;23.440;2024-02-04T02:50:16;2.60;;;1.42;;
68178;SDS011;69812;42.632;23.440;2024-02-04T02:52:45;3.33;;;1.67;;
68178;SDS011;69812;42.632;23.440;2024-02-04T02:55:11;3.63;;;1.80;;
68178;SDS011;69812;42.632;23.440;2024-02-04T02:57:36;3.67;;;1.85;;
68178;SDS011;69812;42.632;23.440;2024-02-04T03:00:02;7.15;;;2.53;;
68178;SDS011;69812;42.632;23.440;2024-02-04T03:02:28;3.70;;;1.92;;
68178;SDS011;69812;42.632;23.440;2024-02-04T03:04:54;4.97;;;2.28;;
68178;SDS011;69812;42.632;23.440;2024-02-04T03:07:19;4.68;;;2.00;;
68178;SDS011;69812;42.632;23.440;2024-02-04T03:09:45;4.18;;;2.10;;
68178;SDS011;69812;42.632;23.440;2024-02-04T03:12:10;3.00;;;1.88;;
68178;SDS011;69812;42.632;23.440;2024-02-04T03:14:36;6.35;;;2.03;;
68178;SDS011;69812;42.632;23.440;2024-02-04T03:17:01;4.82;;;2.15;;
68178;SDS011;69812;42.632;23.440;2024-02-04T03:19:27;3.67;;;1.60;;
68178;SDS011;69812;42.632;23.440;2024-02-04T03:21:52;2.97;;;1.30;;
68178;SDS011;69812;42.632;23.440;2024-02-04T03:24:20;4.35;;;1.75;;
68178;SDS011;69812;42.632;23.440;2024-02-04T03:26:45;4.45;;;2.10;;
68178;SDS011;69812;42.632;23.440;2024-02-04T03:29:11;4.07;;;2.35;;
68178;SDS011;69812;42.632;23.440;2024-02-04T03:31:36;4.40;;;1.73;;
68178;SDS011;69812;42.632;23.440;2024-02-04T03:34:02;2.65;;;1.67;;
68178;SDS011;69812;42.632;23.440;2024-02-04T03:36:27;3.40;;;2.00;;
68178;SDS011;69812;42.632;23.440;2024-02-04T03:38:53;5.90;;;2.05;;
68178;SDS011;69812;42.632;23.440;2024-02-04T03:41:18;4.32;;;2.22;;
68178;SDS011;69812;42.632;23.440;2024-02-04T03:43:44;5.30;;;2.70;;
68178;SDS011;69812;42.632;23.440;2024-02-04T03:46:13;7.68;;;4.30;;
68178;SDS011;69812;42.632;23.440;2024-02-04T03:48:39;7.93;;;3.97;;
68178;SDS011;69812;42.632;23.440;2024-02-04T03:51:05;8.43;;;4.45;;
68178;SDS011;69812;42.632;23.440;2024-02-04T03:53:30;9.25;;;5.32;;
68178;SDS011;69812;42.632;23.440;2024-02-04T03:55:56;8.85;;;4.65;;
68178;SDS011;69812;42.632;23.440;2024-02-04T03:58:28;9.43;;;5.03;;
68178;SDS011;69812;42.632;23.440;2024-02-04T04:00:57;9.20;;;4.50;;
68178;SDS011;69812;42.632;23.440;2024-02-04T04:03:25;9.20;;;4.80;;
68178;SDS011;69812;42.632;23.440;2024-02-04T04:05:53;11.57;;;4.95;;
68178;SDS011;69812;42.632;23.440;2024-02-04T04:08:19;10.80;;;4.97;;
68178;SDS011;69812;42.632;23.440;2024-02-04T04:10:45;12.68;;;5.88;;
68178;SDS011;69812;42.632;23.440;2024-02-04T04:13:11;25.23;;;11.63;;
68178;SDS011;69812;42.632;23.440;2024-02-04T04:15:37;23.60;;;9.95;;
68178;SDS011;69812;42.632;23.440;2024-02-04T04:18:03;18.02;;;8.82;;
68178;SDS011;69812;42.632;23.440;2024-02-04T04:20:29;40.47;;;15.07;;
68178;SDS011;69812;42.632;23.440;2024-02-04T04:22:55;27.85;;;10.25;;
68178;SDS011;69812;42.632;23.440;2024-02-04T04:25:20;8.23;;;3.97;;
68178;SDS011;69812;42.632;23.440;2024-02-04T04:27:45;5.53;;;2.65;;
68178;SDS011;69812;42.632;23.440;2024-02-04T04:30:11;6.90;;;4.03;;
68178;SDS011;69812;42.632;23.440;2024-02-04T04:32:37;9.27;;;5.30;;
68178;SDS011;69812;42.632;23.440;2024-02-04T04:35:02;7.82;;;3.92;;
68178;SDS011;69812;42.632;23.440;2024-02-04T04:37:28;5.43;;;3.30;;
68178;SDS011;69812;42.632;23.440;2024-02-04T04:39:53;6.88;;;4.05;;
68178;SDS011;69812;42.632;23.440;2024-02-04T04:42:19;8.65;;;4.30;;
68178;SDS011;69812;42.632;23.440;2024-02-04T04:44:44;9.82;;;4.90;;
68178;SDS011;69812;42.632;23.440;2024-02-04T04:47:10;8.90;;;4.25;;
68178;SDS011;69812;42.632;23.440;2024-02-04T04:49:35;6.82;;;4.32;;
68178;SDS011;69812;42.632;23.440;2024-02-04T04:52:01;8.27;;;4.15;;
68178;SDS011;69812;42.632;23.440;2024-02-04T04:54:29;9.65;;;4.60;;
68178;SDS011;69812;42.632;23.440;2024-02-04T04:56:54;8.57;;;4.72;;
68178;SDS011;69812;42.632;23.440;2024-02-04T04:59:20;8.90;;;5.95;;
68178;SDS011;69812;42.632;23.440;2024-02-04T05:01:46;10.73;;;5.47;;
68178;SDS011;69812;42.632;23.440;2024-02-04T05:04:11;8.77;;;4.78;;
68178;SDS011;69812;42.632;23.440;2024-02-04T05:06:37;9.95;;;4.82;;
68178;SDS011;69812;42.632;23.440;2024-02-04T05:09:02;8.15;;;4.13;;
68178;SDS011;69812;42.632;23.440;2024-02-04T05:11:28;8.73;;;4.13;;
68178;SDS011;69812;42.632;23.440;2024-02-04T05:13:53;10.02;;;4.07;;
68178;SDS011;69812;42.632;23.440;2024-02-04T05:16:19;7.80;;;2.72;;
68178;SDS011;69812;42.632;23.440;2024-02-04T05:18:45;4.00;;;2.35;;
68178;SDS011;69812;42.632;23.440;2024-02-04T05:21:11;5.07;;;2.83;;
68178;SDS011;69812;42.632;23.440;2024-02-04T05:23:36;6.72;;;2.78;;
68178;SDS011;69812;42.632;23.440;2024-02-04T05:26:05;5.97;;;2.78;;
68178;SDS011;69812;42.632;23.440;2024-02-04T05:28:31;6.38;;;2.92;;
68178;SDS011;69812;42.632;23.440;2024-02-04T05:30:57;6.30;;;3.42;;
68178;SDS011;69812;42.632;23.440;2024-02-04T05:33:22;7.32;;;3.92;;
68178;SDS011;69812;42.632;23.440;2024-02-04T05:35:47;7.03;;;4.15;;
68178;SDS011;69812;42.632;23.440;2024-02-04T05:38:13;7.13;;;4.00;;
68178;SDS011;69812;42.632;23.440;2024-02-04T05:40:39;8.27;;;3.70;;
68178;SDS011;69812;42.632;23.440;2024-02-04T05:43:05;6.68;;;3.80;;
68178;SDS011;69812;42.632;23.440;2024-02-04T05:45:32;7.90;;;4.43;;
68178;SDS011;69812;42.632;23.440;2024-02-04T05:48:00;7.63;;;4.15;;
68178;SDS011;69812;42.632;23.440;2024-02-04T05:50:26;8.35;;;4.18;;
68178;SDS011;69812;42.632;23.440;2024-02-04T05:52:51;4.72;;;2.80;;
68178;SDS011;69812;42.632;23.440;2024-02-04T05:55:17;5.97;;;3.22;;
68178;SDS011;69812;42.632;23.440;2024-02-04T05:57:42;5.70;;;3.00;;
68178;SDS011;69812;42.632;23.440;2024-02-04T06:00:08;5.18;;;2.70;;
68178;SDS011;69812;42.632;23.440;2024-02-04T06:02:37;3.67;;;2.08;;
68178;SDS011;69812;42.632;23.440;2024-02-04T06:05:02;4.43;;;2.47;;
68178;SDS011;69812;42.632;23.440;2024-02-04T06:07:28;3.53;;;2.15;;
68178;SDS011;69812;42.632;23.440;2024-02-04T06:09:54;6.40;;;2.85;;
68178;SDS011;69812;42.632;23.440;2024-02-04T06:12:24;9.98;;;5.25;;
68178;SDS011;69812;42.632;23.440;2024-02-04T06:14:50;11.00;;;5.63;;
68178;SDS011;69812;42.632;23.440;2024-02-04T06:17:18;9.65;;;4.72;;
68178;SDS011;69812;42.632;23.440;2024-02-04T06:19:45;16.05;;;6.88;;
68178;SDS011;69812;42.632;23.440;2024-02-04T06:22:11;14.55;;;6.75;;
68178;SDS011;69812;42.632;23.440;2024-02-04T06:24:37;11.90;;;5.68;;
68178;SDS011;69812;42.632;23.440;2024-02-04T06:27:04;8.48;;;5.07;;
68178;SDS011;69812;42.632;23.440;2024-02-04T06:29:29;8.98;;;4.75;;
68178;SDS011;69812;42.632;23.440;2024-02-04T06:31:55;11.23;;;5.10;;
68178;SDS011;69812;42.632;23.440;2024-02-04T06:34:21;9.95;;;4.43;;
68178;SDS011;69812;42.632;23.440;2024-02-04T06:36:46;10.63;;;4.55;;
68178;SDS011;69812;42.632;23.440;2024-02-04T06:39:12;9.75;;;4.60;;
68178;SDS011;69812;42.632;23.440;2024-02-04T06:41:38;7.82;;;4.15;;
68178;SDS011;69812;42.632;23.440;2024-02-04T06:44:04;8.88;;;4.30;;
68178;SDS011;69812;42.632;23.440;2024-02-04T06:46:30;8.90;;;4.07;;
68178;SDS011;69812;42.632;23.440;2024-02-04T06:48:55;8.80;;;3.90;;
68178;SDS011;69812;42.632;23.440;2024-02-04T06:51:21;4.78;;;2.95;;
68178;SDS011;69812;42.632;23.440;2024-02-04T06:53:47;5.63;;;2.90;;
68178;SDS011;69812;42.632;23.440;2024-02-04T06:56:12;4.15;;;2.30;;
68178;SDS011;69812;42.632;23.440;2024-02-04T06:58:38;3.20;;;2.17;;
68178;SDS011;69812;42.632;23.440;2024-02-04T07:01:06;4.85;;;1.70;;
68178;SDS011;69812;42.632;23.440;2024-02-04T07:03:32;2.70;;;1.75;;
68178;SDS011;69812;42.632;23.440;2024-02-04T07:06:00;2.35;;;1.55;;
68178;SDS011;69812;42.632;23.440;2024-02-04T07:08:26;2.67;;;1.83;;
68178;SDS011;69812;42.632;23.440;2024-02-04T07:10:52;3.75;;;2.33;;
68178;SDS011;69812;42.632;23.440;2024-02-04T07:13:17;3.85;;;2.03;;
68178;SDS011;69812;42.632;23.440;2024-02-04T07:15:43;3.80;;;1.65;;
68178;SDS011;69812;42.632;23.440;2024-02-04T07:18:11;3.67;;;2.00;;
68178;SDS011;69812;42.632;23.440;2024-02-04T07:20:36;4.45;;;1.33;;
68178;SDS011;69812;42.632;23.440;2024-02-04T07:23:02;3.58;;;1.80;;
68178;SDS011;69812;42.632;23.440;2024-02-04T07:25:28;2.95;;;1.85;;
68178;SDS011;69812;42.632;23.440;2024-02-04T07:27:54;3.22;;;1.70;;
68178;SDS011;69812;42.632;23.440;2024-02-04T07:30:19;4.45;;;2.00;;
68178;SDS011;69812;42.632;23.440;2024-02-04T07:32:46;2.72;;;1.63;;
68178;SDS011;69812;42.632;23.440;2024-02-04T07:35:11;3.40;;;1.75;;
68178;SDS011;69812;42.632;23.440;2024-02-04T07:37:37;3.05;;;1.77;;
68178;SDS011;69812;42.632;23.440;2024-02-04T07:40:03;4.22;;;1.88;;
68178;SDS011;69812;42.632;23.440;2024-02-04T07:42:30;4.30;;;2.05;;
68178;SDS011;69812;42.632;23.440;2024-02-04T07:44:56;4.13;;;1.98;;
68178;SDS011;69812;42.632;23.440;2024-02-04T07:47:21;4.13;;;2.00;;
68178;SDS011;69812;42.632;23.440;2024-02-04T07:49:47;8.80;;;1.55;;
68178;SDS011;69812;42.632;23.440;2024-02-04T07:52:15;2.63;;;1.52;;
68178;SDS011;69812;42.632;23.440;2024-02-04T07:54:43;3.83;;;2.03;;
68178;SDS011;69812;42.632;23.440;2024-02-04T07:57:09;3.40;;;2.05;;
68178;SDS011;69812;42.632;23.440;2024-02-04T07:59:34;3.17;;;1.67;;
68178;SDS011;69812;42.632;23.440;2024-02-04T08:02:03;3.33;;;1.83;;
68178;SDS011;69812;42.632;23.440;2024-02-04T08:04:29;2.03;;;1.25;;
68178;SDS011;69812;42.632;23.440;2024-02-04T08:06:55;4.80;;;1.40;;
68178;SDS011;69812;42.632;23.440;2024-02-04T08:09:20;3.03;;;1.50;;
68178;SDS011;69812;42.632;23.440;2024-02-04T08:11:46;4.32;;;1.70;;
68178;SDS011;69812;42.632;23.440;2024-02-04T08:14:12;5.57;;;2.00;;
68178;SDS011;69812;42.632;23.440;2024-02-04T08:16:39;4.15;;;1.98;;
68178;SDS011;69812;42.632;23.440;2024-02-04T08:19:04;3.95;;;1.90;;
68178;SDS011;69812;42.632;23.440;2024-02-04T08:21:31;3.13;;;1.50;;
68178;SDS011;69812;42.632;23.440;2024-02-04T08:23:57;3.13;;;1.85;;
68178;SDS011;69812;42.632;23.440;2024-02-04T08:26:23;3.30;;;1.38;;
68178;SDS011;69812;42.632;23.440;2024-02-04T08:28:49;3.83;;;1.70;;
68178;SDS011;69812;42.632;23.440;2024-02-04T08:31:14;4.85;;;1.48;;
68178;SDS011;69812;42.632;23.440;2024-02-04T08:33:39;2.22;;;1.30;;
68178;SDS011;69812;42.632;23.440;2024-02-04T08:36:05;3.63;;;1.33;;
68178;SDS011;69812;42.632;23.440;2024-02-04T08:38:31;3.53;;;1.77;;
68178;SDS011;69812;42.632;23.440;2024-02-04T08:40:57;3.88;;;1.67;;
68178;SDS011;69812;42.632;23.440;2024-02-04T08:43:22;1.90;;;1.02;;
68178;SDS011;69812;42.632;23.440;2024-02-04T08:45:48;2.42;;;1.10;;
68178;SDS011;69812;42.632;23.440;2024-02-04T08:48:16;3.28;;;1.48;;
68178;SDS011;69812;42.632;23.440;2024-02-04T08:50:41;3.00;;;1.25;;
68178;SDS011;69812;42.632;23.440;2024-02-04T08:53:07;1.88;;;1.00;;
68178;SDS011;69812;42.632;23.440;2024-02-04T08:55:32;3.92;;;1.70;;
68178;SDS011;69812;42.632;23.440;2024-02-04T08:58:00;2.13;;;1.20;;
68178;SDS011;69812;42.632;23.440;2024-02-04T09:00:25;3.17;;;1.40;;
68178;SDS011;69812;42.632;23.440;2024-02-04T09:02:50;2.85;;;1.35;;
68178;SDS011;69812;42.632;23.440;2024-02-04T09:05:16;2.08;;;1.10;;
68178;SDS011;69812;42.632;23.440;2024-02-04T09:07:45;4.07;;;1.40;;
68178;SDS011;69812;42.632;23.440;2024-02-04T09:10:10;1.95;;;1.08;;
68178;SDS011;69812;42.632;23.440;2024-02-04T09:12:35;2.65;;;1.45;;
68178;SDS011;69812;42.632;23.440;2024-02-04T09:15:01;1.73;;;1.10;;
68178;SDS011;69812;42.632;23.440;2024-02-04T09:17:29;2.85;;;1.20;;
68178;SDS011;69812;42.632;23.440;2024-02-04T09:19:58;1.70;;;1.08;;
68178;SDS011;69812;42.632;23.440;2024-02-04T09:22:23;2.13;;;1.00;;
68178;SDS011;69812;42.632;23.440;2024-02-04T09:24:49;1.83;;;1.10;;
68178;SDS011;69812;42.632;23.440;2024-02-04T09:27:14;2.50;;;1.20;;
68178;SDS011;69812;42.632;23.440;2024-02-04T09:29:39;2.53;;;1.13;;
68178;SDS011;69812;42.632;23.440;2024-02-04T09:32:05;2.80;;;1.10;;
68178;SDS011;69812;42.632;23.440;2024-02-04T09:34:33;4.15;;;1.20;;
68178;SDS011;69812;42.632;23.440;2024-02-04T09:36:59;2.30;;;1.05;;
68178;SDS011;69812;42.632;23.440;2024-02-04T09:39:24;2.50;;;1.02;;
68178;SDS011;69812;42.632;23.440;2024-02-04T09:41:53;1.92;;;1.20;;
68178;SDS011;69812;42.632;23.440;2024-02-04T09:46:45;1.83;;;1.17;;
68178;SDS011;69812;42.632;23.440;2024-02-04T09:49:11;2.90;;;1.08;;
68178;SDS011;69812;42.632;23.440;2024-02-04T09:51:39;2.85;;;1.25;;
68178;SDS011;69812;42.632;23.440;2024-02-04T09:54:05;2.83;;;1.48;;
68178;SDS011;69812;42.632;23.440;2024-02-04T09:56:34;1.88;;;1.33;;
68178;SDS011;69812;42.632;23.440;2024-02-04T09:59:02;2.45;;;1.30;;
68178;SDS011;69812;42.632;23.440;2024-02-04T10:01:27;2.17;;;1.20;;
68178;SDS011;69812;42.632;23.440;2024-02-04T10:03:53;1.90;;;0.95;;
68178;SDS011;69812;42.632;23.440;2024-02-04T10:06:19;2.03;;;1.30;;
68178;SDS011;69812;42.632;23.440;2024-02-04T10:08:47;2.08;;;1.13;;
68178;SDS011;69812;42.632;23.440;2024-02-04T10:11:13;2.67;;;1.25;;
68178;SDS011;69812;42.632;23.440;2024-02-04T10:13:48;3.78;;;1.50;;
68178;SDS011;69812;42.632;23.440;2024-02-04T10:16:15;2.28;;;1.45;;
68178;SDS011;69812;42.632;23.440;2024-02-04T10:18:44;3.20;;;1.23;;
68178;SDS011;69812;42.632;23.440;2024-02-04T10:21:17;2.42;;;1.30;;
68178;SDS011;69812;42.632;23.440;2024-02-04T10:26:12;2.78;;;1.30;;
68178;SDS011;69812;42.632;23.440;2024-02-04T10:28:38;2.17;;;1.10;;
68178;SDS011;69812;42.632;23.440;2024-02-04T10:31:04;2.85;;;1.45;;
68178;SDS011;69812;42.632;23.440;2024-02-04T10:33:30;1.98;;;1.20;;
68178;SDS011;69812;42.632;23.440;2024-02-04T10:35:56;3.13;;;1.30;;
68178;SDS011;69812;42.632;23.440;2024-02-04T10:38:21;2.95;;;1.40;;
68178;SDS011;69812;42.632;23.440;2024-02-04T10:40:47;2.30;;;0.85;;
68178;SDS011;69812;42.632;23.440;2024-02-04T10:43:17;2.03;;;1.00;;
68178;SDS011;69812;42.632;23.440;2024-02-04T10:45:43;1.67;;;1.10;;
68178;SDS011;69812;42.632;23.440;2024-02-04T10:48:10;2.88;;;1.30;;
68178;SDS011;69812;42.632;23.440;2024-02-04T10:50:36;3.08;;;1.38;;
68178;SDS011;69812;42.632;23.440;2024-02-04T10:53:06;2.25;;;1.23;;
68178;SDS011;69812;42.632;23.440;2024-02-04T10:55:40;2.13;;;1.10;;
68178;SDS011;69812;42.632;23.440;2024-02-04T10:58:07;2.97;;;1.10;;
68178;SDS011;69812;42.632;23.440;2024-02-04T11:00:33;2.05;;;1.23;;
68178;SDS011;69812;42.632;23.440;2024-02-04T11:02:59;1.35;;;0.82;;
68178;SDS011;69812;42.632;23.440;2024-02-04T11:05:27;2.13;;;0.98;;
68178;SDS011;69812;42.632;23.440;2024-02-04T11:07:54;3.17;;;1.27;;
68178;SDS011;69812;42.632;23.440;2024-02-04T11:10:20;2.22;;;1.25;;
68178;SDS011;69812;42.632;23.440;2024-02-04T11:12:47;2.08;;;1.00;;
68178;SDS011;69812;42.632;23.440;2024-02-04T11:15:14;3.47;;;1.33;;
68178;SDS011;69812;42.632;23.440;2024-02-04T11:20:47;4.18;;;1.67;;
68178;SDS011;69812;42.632;23.440;2024-02-04T11:23:36;2.15;;;1.15;;
68178;SDS011;69812;42.632;23.440;2024-02-04T11:26:03;1.77;;;0.90;;
68178;SDS011;69812;42.632;23.440;2024-02-04T11:30:58;2.00;;;1.10;;
68178;SDS011;69812;42.632;23.440;2024-02-04T11:33:24;2.70;;;1.20;;
68178;SDS011;69812;42.632;23.440;2024-02-04T11:35:59;2.42;;;1.10;;
68178;SDS011;69812;42.632;23.440;2024-02-04T11:38:31;4.05;;;1.27;;
68178;SDS011;69812;42.632;23.440;2024-02-04T11:40:58;2.40;;;0.95;;
68178;SDS011;69812;42.632;23.440;2024-02-04T11:43:23;2.50;;;1.38;;
68178;SDS011;69812;42.632;23.440;2024-02-04T11:45:51;3.45;;;1.30;;
68178;SDS011;69812;42.632;23.440;2024-02-04T11:48:19;2.03;;;1.30;;
68178;SDS011;69812;42.632;23.440;2024-02-04T11:50:51;1.23;;;0.93;;
68178;SDS011;69812;42.632;23.440;2024-02-04T11:53:17;1.65;;;0.85;;
68178;SDS011;69812;42.632;23.440;2024-02-04T11:55:43;2.50;;;1.10;;
68178;SDS011;69812;42.632;23.440;2024-02-04T11:58:10;2.33;;;1.02;;
68178;SDS011;69812;42.632;23.440;2024-02-04T12:00:37;2.17;;;1.15;;
68178;SDS011;69812;42.632;23.440;2024-02-04T12:03:03;1.38;;;1.05;;
68178;SDS011;69812;42.632;23.440;2024-02-04T12:05:34;3.42;;;1.20;;
68178;SDS011;69812;42.632;23.440;2024-02-04T12:08:01;1.60;;;1.10;;
68178;SDS011;69812;42.632;23.440;2024-02-04T12:10:30;4.15;;;2.17;;
68178;SDS011;69812;42.632;23.440;2024-02-04T12:12:58;2.85;;;1.52;;
68178;SDS011;69812;42.632;23.440;2024-02-04T12:15:24;1.67;;;1.13;;
68178;SDS011;69812;42.632;23.440;2024-02-04T12:17:50;1.70;;;1.20;;
68178;SDS011;69812;42.632;23.440;2024-02-04T12:20:16;2.15;;;1.20;;
68178;SDS011;69812;42.632;23.440;2024-02-04T12:25:08;1.88;;;1.27;;
68178;SDS011;69812;42.632;23.440;2024-02-04T12:27:34;1.88;;;1.20;;
68178;SDS011;69812;42.632;23.440;2024-02-04T12:29:59;4.57;;;1.52;;
68178;SDS011;69812;42.632;23.440;2024-02-04T12:32:25;2.58;;;1.40;;
68178;SDS011;69812;42.632;23.440;2024-02-04T12:34:58;2.38;;;1.52;;
68178;SDS011;69812;42.632;23.440;2024-02-04T12:37:23;1.83;;;1.20;;
68178;SDS011;69812;42.632;23.440;2024-02-04T12:39:49;1.88;;;1.40;;
68178;SDS011;69812;42.632;23.440;2024-02-04T12:42:17;2.28;;;1.10;;
68178;SDS011;69812;42.632;23.440;2024-02-04T12:44:49;2.55;;;1.50;;
68178;SDS011;69812;42.632;23.440;2024-02-04T12:47:18;2.08;;;1.33;;
68178;SDS011;69812;42.632;23.440;2024-02-04T12:49:44;3.78;;;2.00;;
68178;SDS011;69812;42.632;23.440;2024-02-04T12:52:10;2.70;;;1.20;;
68178;SDS011;69812;42.632;23.440;2024-02-04T12:54:45;3.10;;;1.63;;
68178;SDS011;69812;42.632;23.440;2024-02-04T12:57:21;1.88;;;1.33;;
68178;SDS011;69812;42.632;23.440;2024-02-04T12:59:48;1.50;;;1.00;;
68178;SDS011;69812;42.632;23.440;2024-02-04T13:02:13;2.80;;;1.50;;
68178;SDS011;69812;42.632;23.440;2024-02-04T13:04:41;2.72;;;1.30;;
68178;SDS011;69812;42.632;23.440;2024-02-04T13:07:12;2.33;;;1.40;;
68178;SDS011;69812;42.632;23.440;2024-02-04T13:09:42;2.80;;;1.42;;
68178;SDS011;69812;42.632;23.440;2024-02-04T13:12:10;1.75;;;1.30;;
68178;SDS011;69812;42.632;23.440;2024-02-04T13:14:36;2.60;;;1.25;;
68178;SDS011;69812;42.632;23.440;2024-02-04T13:17:03;2.15;;;1.40;;
68178;SDS011;69812;42.632;23.440;2024-02-04T13:19:36;1.77;;;1.50;;
68178;SDS011;69812;42.632;23.440;2024-02-04T13:22:03;2.55;;;1.27;;
68178;SDS011;69812;42.632;23.440;2024-02-04T13:24:29;2.03;;;1.40;;
68178;SDS011;69812;42.632;23.440;2024-02-04T13:26:55;2.67;;;1.60;;
68178;SDS011;69812;42.632;23.440;2024-02-04T13:29:21;2.10;;;1.33;;
68178;SDS011;69812;42.632;23.440;2024-02-04T13:31:47;2.92;;;1.42;;
68178;SDS011;69812;42.632;23.440;2024-02-04T13:34:12;3.25;;;1.58;;
68178;SDS011;69812;42.632;23.440;2024-02-04T13:36:40;1.52;;;0.98;;
68178;SDS011;69812;42.632;23.440;2024-02-04T13:39:06;3.10;;;1.50;;
68178;SDS011;69812;42.632;23.440;2024-02-04T13:41:31;3.90;;;2.08;;
68178;SDS011;69812;42.632;23.440;2024-02-04T13:43:57;1.40;;;0.98;;
68178;SDS011;69812;42.632;23.440;2024-02-04T13:46:23;3.25;;;1.52;;
68178;SDS011;69812;42.632;23.440;2024-02-04T13:48:48;1.90;;;1.20;;
68178;SDS011;69812;42.632;23.440;2024-02-04T13:51:14;2.50;;;1.70;;
68178;SDS011;69812;42.632;23.440;2024-02-04T13:53:40;2.63;;;1.52;;
68178;SDS011;69812;42.632;23.440;2024-02-04T13:56:05;2.40;;;1.42;;
68178;SDS011;69812;42.632;23.440;2024-02-04T13:58:31;2.78;;;1.60;;
68178;SDS011;69812;42.632;23.440;2024-02-04T14:00:56;2.83;;;1.50;;
68178;SDS011;69812;42.632;23.440;2024-02-04T14:03:22;1.75;;;1.20;;
68178;SDS011;69812;42.632;23.440;2024-02-04T14:05:47;1.90;;;1.17;;
68178;SDS011;69812;42.632;23.440;2024-02-04T14:08:12;2.90;;;1.35;;
68178;SDS011;69812;42.632;23.440;2024-02-04T14:10:39;3.55;;;1.48;;
68178;SDS011;69812;42.632;23.440;2024-02-04T14:15:30;5.03;;;1.70;;
68178;SDS011;69812;42.632;23.440;2024-02-04T14:17:56;2.72;;;1.48;;
68178;SDS011;69812;42.632;23.440;2024-02-04T14:20:22;2.63;;;1.40;;
68178;SDS011;69812;42.632;23.440;2024-02-04T14:22:48;2.15;;;1.40;;
68178;SDS011;69812;42.632;23.440;2024-02-04T14:25:15;4.25;;;1.50;;
68178;SDS011;69812;42.632;23.440;2024-02-04T14:27:44;3.10;;;1.35;;
68178;SDS011;69812;42.632;23.440;2024-02-04T14:30:10;2.30;;;1.33;;
68178;SDS011;69812;42.632;23.440;2024-02-04T14:32:35;2.40;;;1.40;;
68178;SDS011;69812;42.632;23.440;2024-02-04T14:35:01;3.38;;;1.30;;
68178;SDS011;69812;42.632;23.440;2024-02-04T14:37:29;2.20;;;1.35;;
68178;SDS011;69812;42.632;23.440;2024-02-04T14:39:57;2.88;;;1.50;;
68178;SDS011;69812;42.632;23.440;2024-02-04T14:42:25;2.95;;;1.70;;
68178;SDS011;69812;42.632;23.440;2024-02-04T14:44:51;4.05;;;1.50;;